Time;durP1;ratioP1;P1;durP2;ratioP2;P2;SDS_P1;SDS_P2;PMS_P1;PMS_P2;Temp;Humidity;BMP_temperature;BMP_pressure;BME280_temperature;BME280_humidity;BME280_pressure;Samples;Min_cycle;Max_cycle;Signal;HPM_P1;HPM_P2
2022/05/11 00:01:31;;;;;;;10.30;8.50;;;;;;;;;;775523;180;616649;-65
2022/05/11 00:03:57;;;;;;;11.23;9.33;;;;;;;;;;770472;180;919849;-64
2022/05/11 00:06:22;;;;;;;11.50;9.07;;;;;;;;;;778087;179;920187;-65
2022/05/11 00:08:48;;;;;;;13.10;10.60;;;;;;;;;;777509;179;919575;-64
2022/05/11 00:11:14;;;;;;;11.30;9.90;;;;;;;;;;776329;179;1022423;-64
2022/05/11 00:13:40;;;;;;;12.37;9.83;;;;;;;;;;779663;180;919014;-64
2022/05/11 00:16:06;;;;;;;17.90;11.23;;;;;;;;;;776785;179;642138;-65
2022/05/11 00:18:32;;;;;;;12.77;9.87;;;;;;;;;;775328;180;625889;-65
2022/05/11 00:20:57;;;;;;;12.20;9.30;;;;;;;;;;767746;181;920019;-64
2022/05/11 00:23:23;;;;;;;15.70;9.10;;;;;;;;;;773434;179;918748;-64
2022/05/11 00:25:49;;;;;;;11.53;10.37;;;;;;;;;;772086;180;920051;-65
2022/05/11 00:28:15;;;;;;;13.47;10.53;;;;;;;;;;765143;181;937119;-64
2022/05/11 00:30:41;;;;;;;10.53;8.70;;;;;;;;;;775682;179;919677;-64
2022/05/11 00:33:07;;;;;;;13.63;9.03;;;;;;;;;;773680;179;1023349;-64
2022/05/11 00:35:33;;;;;;;10.00;8.97;;;;;;;;;;771715;181;920153;-64
2022/05/11 00:37:58;;;;;;;11.57;9.83;;;;;;;;;;777868;180;869664;-64
2022/05/11 00:40:24;;;;;;;11.83;8.77;;;;;;;;;;771738;177;918561;-64
2022/05/11 00:42:50;;;;;;;12.18;9.57;;;;;;;;;;776611;179;919115;-64
2022/05/11 00:45:16;;;;;;;10.97;9.20;;;;;;;;;;775613;179;927166;-64
2022/05/11 00:47:43;;;;;;;11.30;9.73;;;;;;;;;;774764;180;920153;-64
2022/05/11 00:50:24;;;;;;;13.65;9.70;;;;;;;;;;775627;179;920154;-64
2022/05/11 00:52:59;;;;;;;13.40;10.97;;;;;;;;;;768647;179;1031205;-66
2022/05/11 00:55:26;;;;;;;10.90;9.63;;;;;;;;;;778523;179;919559;-65
2022/05/11 00:57:52;;;;;;;13.13;10.43;;;;;;;;;;777689;179;919460;-63
2022/05/11 01:00:18;;;;;;;11.90;10.70;;;;;;;;;;770706;179;920079;-65
2022/05/11 01:02:44;;;;;;;12.90;11.60;;;;;;;;;;771559;180;920167;-65
2022/05/11 01:05:10;;;;;;;11.27;9.30;;;;;;;;;;771915;179;919617;-65
2022/05/11 01:07:36;;;;;;;12.70;10.97;;;;;;;;;;780988;179;920217;-65
2022/05/11 01:10:01;;;;;;;12.87;10.80;;;;;;;;;;772861;180;919179;-65
2022/05/11 01:12:29;;;;;;;12.40;11.00;;;;;;;;;;772451;180;919831;-65
2022/05/11 01:14:53;;;;;;;12.10;9.83;;;;;;;;;;778788;179;920107;-66
2022/05/11 01:17:19;;;;;;;20.73;11.30;;;;;;;;;;767058;182;919304;-64
2022/05/11 01:19:45;;;;;;;13.43;10.63;;;;;;;;;;766455;180;919816;-65
2022/05/11 01:22:15;;;;;;;13.48;10.23;;;;;;;;;;778623;179;919065;-64
2022/05/11 01:24:42;;;;;;;14.57;10.90;;;;;;;;;;767847;180;919328;-64
2022/05/11 01:27:13;;;;;;;13.30;9.60;;;;;;;;;;777400;180;920075;-65
2022/05/11 01:29:39;;;;;;;11.50;10.27;;;;;;;;;;777459;180;919658;-65
2022/05/11 01:32:05;;;;;;;13.00;10.10;;;;;;;;;;776530;180;920190;-64
2022/05/11 01:34:33;;;;;;;12.70;9.50;;;;;;;;;;772772;180;1022113;-64
2022/05/11 01:36:57;;;;;;;11.65;9.80;;;;;;;;;;778578;179;919956;-66
2022/05/11 01:39:23;;;;;;;13.37;11.47;;;;;;;;;;774053;179;918777;-65
2022/05/11 01:41:49;;;;;;;11.90;10.60;;;;;;;;;;778476;180;919326;-65
2022/05/11 01:44:16;;;;;;;14.30;11.47;;;;;;;;;;771433;180;920077;-64
2022/05/11 01:46:41;;;;;;;20.10;11.50;;;;;;;;;;774152;180;919242;-65
2022/05/11 01:49:07;;;;;;;25.70;11.30;;;;;;;;;;783302;179;919861;-64
2022/05/11 01:51:33;;;;;;;15.30;11.53;;;;;;;;;;777117;179;919175;-64
2022/05/11 01:53:59;;;;;;;13.70;10.32;;;;;;;;;;775856;179;917801;-64
2022/05/11 01:56:24;;;;;;;15.50;11.30;;;;;;;;;;769684;183;921698;-64
2022/05/11 01:58:50;;;;;;;11.80;10.03;;;;;;;;;;777012;177;920024;-64
2022/05/11 02:01:16;;;;;;;15.50;11.23;;;;;;;;;;767210;180;919280;-64
2022/05/11 02:03:42;;;;;;;11.67;10.47;;;;;;;;;;769002;179;916094;-64
2022/05/11 02:08:39;;;;;;;13.13;11.47;;;;;;;;;;779633;177;917109;-64
2022/05/11 02:11:05;;;;;;;13.87;10.80;;;;;;;;;;776324;178;916791;-64
2022/05/11 02:13:32;;;;;;;12.83;10.10;;;;;;;;;;775733;178;916258;-65
2022/05/11 02:15:57;;;;;;;15.67;11.73;;;;;;;;;;774301;179;920057;-65
2022/05/11 02:18:23;;;;;;;15.97;11.37;;;;;;;;;;777811;179;919855;-65
2022/05/11 02:20:49;;;;;;;14.30;11.87;;;;;;;;;;777206;180;919461;-65
2022/05/11 02:23:15;;;;;;;17.73;12.00;;;;;;;;;;776716;179;919745;-65
2022/05/11 02:25:41;;;;;;;15.80;11.23;;;;;;;;;;777141;179;927991;-65
2022/05/11 02:28:07;;;;;;;13.67;12.17;;;;;;;;;;777003;179;942581;-64
2022/05/11 02:30:33;;;;;;;17.30;10.60;;;;;;;;;;776121;180;919280;-65
2022/05/11 02:32:59;;;;;;;18.13;10.30;;;;;;;;;;772662;179;920018;-65
2022/05/11 02:35:25;;;;;;;17.00;11.30;;;;;;;;;;769776;180;1123076;-65
2022/05/11 02:37:53;;;;;;;13.10;10.67;;;;;;;;;;777245;180;1021667;-65
2022/05/11 02:40:18;;;;;;;12.30;9.83;;;;;;;;;;773942;180;919598;-65
2022/05/11 02:42:44;;;;;;;12.00;9.90;;;;;;;;;;772731;180;919361;-65
2022/05/11 02:45:10;;;;;;;13.88;9.15;;;;;;;;;;775820;179;918985;-64
2022/05/11 02:47:36;;;;;;;13.50;10.70;;;;;;;;;;778552;180;919097;-65
2022/05/11 02:50:03;;;;;;;16.17;10.20;;;;;;;;;;776685;180;919367;-65
2022/05/11 02:52:28;;;;;;;12.83;10.63;;;;;;;;;;774330;179;919236;-65
2022/05/11 02:54:54;;;;;;;15.85;11.00;;;;;;;;;;777836;178;919490;-66
2022/05/11 02:57:20;;;;;;;14.10;10.53;;;;;;;;;;765470;183;919652;-65
2022/05/11 02:59:48;;;;;;;13.97;11.33;;;;;;;;;;774801;179;919379;-65
2022/05/11 03:02:11;;;;;;;13.83;11.40;;;;;;;;;;771905;180;918972;-65
2022/05/11 03:04:37;;;;;;;19.13;11.40;;;;;;;;;;771155;178;1029207;-65
2022/05/11 03:07:03;;;;;;;15.13;12.88;;;;;;;;;;778857;179;919396;-65
2022/05/11 03:09:29;;;;;;;16.10;13.10;;;;;;;;;;777786;179;919220;-64
2022/05/11 03:11:55;;;;;;;15.87;11.27;;;;;;;;;;778385;180;919621;-65
2022/05/11 03:14:21;;;;;;;19.50;13.60;;;;;;;;;;776507;179;918869;-65
2022/05/11 03:16:47;;;;;;;17.98;13.80;;;;;;;;;;776313;178;1020798;-66
2022/05/11 03:19:12;;;;;;;17.53;12.80;;;;;;;;;;782140;179;919608;-65
2022/05/11 03:21:38;;;;;;;20.10;14.20;;;;;;;;;;775999;179;919352;-65
2022/05/11 03:24:04;;;;;;;20.53;13.80;;;;;;;;;;777918;179;919115;-65
2022/05/11 03:26:30;;;;;;;24.13;15.80;;;;;;;;;;780657;179;919165;-66
2022/05/11 03:28:56;;;;;;;20.17;14.50;;;;;;;;;;769693;180;943349;-65
2022/05/11 03:31:22;;;;;;;17.02;13.60;;;;;;;;;;772473;179;918556;-65
2022/05/11 03:36:19;;;;;;;19.77;13.13;;;;;;;;;;780663;179;920025;-65
2022/05/11 03:38:45;;;;;;;16.80;15.00;;;;;;;;;;772019;180;920050;-65
2022/05/11 03:41:11;;;;;;;22.02;15.27;;;;;;;;;;773388;179;919998;-65
2022/05/11 03:43:37;;;;;;;22.50;17.00;;;;;;;;;;779593;180;919105;-65
2022/05/11 03:46:03;;;;;;;19.33;15.63;;;;;;;;;;778329;179;915914;-67
2022/05/11 03:48:29;;;;;;;22.95;16.05;;;;;;;;;;773364;179;1021962;-65
2022/05/11 03:50:54;;;;;;;20.30;15.57;;;;;;;;;;781200;179;1014352;-65
2022/05/11 03:53:20;;;;;;;21.87;17.43;;;;;;;;;;775767;178;920591;-65
2022/05/11 03:55:46;;;;;;;19.20;16.67;;;;;;;;;;773029;180;963995;-65
2022/05/11 03:58:14;;;;;;;27.60;15.23;;;;;;;;;;774532;179;919737;-64
2022/05/11 04:00:38;;;;;;;27.10;17.52;;;;;;;;;;780567;179;919516;-66
2022/05/11 04:03:04;;;;;;;22.20;16.03;;;;;;;;;;775259;180;918952;-66
2022/05/11 04:05:32;;;;;;;30.43;16.63;;;;;;;;;;771091;180;920557;-65
2022/05/11 04:07:56;;;;;;;22.00;17.07;;;;;;;;;;779982;180;918802;-66
2022/05/11 04:10:21;;;;;;;20.13;16.50;;;;;;;;;;775447;179;924905;-65
2022/05/11 04:12:47;;;;;;;31.97;16.70;;;;;;;;;;774208;179;917926;-66
2022/05/11 04:15:13;;;;;;;19.37;15.43;;;;;;;;;;780954;179;919537;-65
2022/05/11 04:17:39;;;;;;;27.20;16.53;;;;;;;;;;775331;179;919115;-66
2022/05/11 04:20:05;;;;;;;31.63;17.20;;;;;;;;;;779578;179;635515;-66
2022/05/11 04:22:31;;;;;;;20.63;15.80;;;;;;;;;;779096;179;628942;-65
2022/05/11 04:24:57;;;;;;;23.03;17.67;;;;;;;;;;769952;181;914222;-66
2022/05/11 04:27:23;;;;;;;25.80;18.63;;;;;;;;;;770172;178;1039349;-66
2022/05/11 04:29:49;;;;;;;30.27;17.83;;;;;;;;;;778007;178;918711;-66
2022/05/11 04:32:15;;;;;;;31.03;19.23;;;;;;;;;;781977;177;919655;-66
2022/05/11 04:34:42;;;;;;;27.23;18.20;;;;;;;;;;775299;179;920131;-66
2022/05/11 04:37:08;;;;;;;32.63;20.47;;;;;;;;;;776290;180;940488;-66
2022/05/11 04:39:33;;;;;;;27.73;21.13;;;;;;;;;;781309;180;921015;-66
2022/05/11 04:41:59;;;;;;;29.97;20.10;;;;;;;;;;778142;179;918329;-66
2022/05/11 04:44:25;;;;;;;33.07;23.60;;;;;;;;;;779044;180;631855;-67
2022/05/11 04:46:51;;;;;;;49.93;25.23;;;;;;;;;;778941;178;629207;-66
2022/05/11 04:49:19;;;;;;;36.93;25.70;;;;;;;;;;779264;181;624501;-66
2022/05/11 04:51:43;;;;;;;38.70;26.27;;;;;;;;;;776467;179;633733;-66
2022/05/11 04:54:09;;;;;;;47.37;27.57;;;;;;;;;;778770;177;745443;-66
2022/05/11 04:56:34;;;;;;;40.00;28.27;;;;;;;;;;786097;179;616217;-66
2022/05/11 04:59:00;;;;;;;33.90;26.37;;;;;;;;;;780437;179;783993;-67
2022/05/11 05:01:26;;;;;;;39.43;26.90;;;;;;;;;;781182;179;633489;-66
2022/05/11 05:03:52;;;;;;;38.23;26.13;;;;;;;;;;782766;179;625891;-67
2022/05/11 05:06:18;;;;;;;35.33;25.10;;;;;;;;;;778276;179;618036;-67
2022/05/11 05:08:44;;;;;;;31.13;22.67;;;;;;;;;;778859;179;635445;-66
2022/05/11 05:11:10;;;;;;;33.20;21.77;;;;;;;;;;780342;178;643227;-65
2022/05/11 05:13:36;;;;;;;22.30;18.60;;;;;;;;;;776059;181;619177;-66
2022/05/11 05:16:01;;;;;;;23.53;19.20;;;;;;;;;;775209;179;623116;-67
2022/05/11 05:18:28;;;;;;;24.00;18.03;;;;;;;;;;778756;179;627021;-66
2022/05/11 05:20:55;;;;;;;22.33;18.33;;;;;;;;;;781784;178;631609;-66
2022/05/11 05:23:19;;;;;;;23.53;18.27;;;;;;;;;;775620;179;1021338;-66
2022/05/11 05:25:45;;;;;;;23.55;16.75;;;;;;;;;;778455;179;918658;-66
2022/05/11 05:33:14;;;;;;;18.23;15.03;;;;;;;;;;773222;180;918956;-65
2022/05/11 05:35:40;;;;;;;18.00;14.20;;;;;;;;;;775127;179;920848;-66
2022/05/11 05:38:06;;;;;;;17.83;14.07;;;;;;;;;;780848;178;919936;-65
2022/05/11 05:40:31;;;;;;;22.40;15.27;;;;;;;;;;777351;179;919868;-65
2022/05/11 05:42:57;;;;;;;16.70;14.17;;;;;;;;;;773226;179;918540;-65
2022/05/11 05:45:23;;;;;;;18.27;14.40;;;;;;;;;;781699;179;918923;-65
2022/05/11 05:47:49;;;;;;;16.00;13.60;;;;;;;;;;781427;178;918504;-66
2022/05/11 05:50:15;;;;;;;17.83;14.13;;;;;;;;;;783748;179;626428;-66
2022/05/11 05:52:41;;;;;;;19.00;14.43;;;;;;;;;;779248;177;918486;-66
2022/05/11 05:55:07;;;;;;;17.43;13.73;;;;;;;;;;783423;180;919216;-66
2022/05/11 05:57:33;;;;;;;22.83;13.67;;;;;;;;;;774761;179;619327;-66
2022/05/11 06:00:00;;;;;;;20.30;14.10;;;;;;;;;;767380;179;923859;-66
2022/05/11 06:02:24;;;;;;;17.10;12.70;;;;;;;;;;778213;180;919754;-66
2022/05/11 06:04:50;;;;;;;11.77;9.90;;;;;;;;;;779550;180;1019958;-66
2022/05/11 06:07:16;;;;;;;11.80;10.15;;;;;;;;;;779479;180;925538;-68
2022/05/11 06:09:42;;;;;;;11.97;8.83;;;;;;;;;;786805;179;622866;-67
2022/05/11 06:12:08;;;;;;;9.27;8.37;;;;;;;;;;784539;179;634577;-67
2022/05/11 06:14:34;;;;;;;16.90;7.87;;;;;;;;;;783428;179;920123;-67
2022/05/11 06:17:01;;;;;;;8.70;7.60;;;;;;;;;;773864;179;919322;-68
2022/05/11 06:19:26;;;;;;;11.67;7.53;;;;;;;;;;762086;181;919862;-66
2022/05/11 06:21:52;;;;;;;10.87;6.90;;;;;;;;;;750523;184;919451;-66
2022/05/11 06:24:18;;;;;;;14.50;9.20;;;;;;;;;;767721;182;919374;-67
2022/05/11 06:26:44;;;;;;;9.23;7.00;;;;;;;;;;775868;178;913698;-68
2022/05/11 06:29:10;;;;;;;14.53;7.33;;;;;;;;;;775578;180;919748;-67
2022/05/11 06:31:36;;;;;;;8.05;6.85;;;;;;;;;;772831;179;919590;-67
2022/05/11 06:34:01;;;;;;;14.43;7.83;;;;;;;;;;777659;179;919619;-67
2022/05/11 06:36:27;;;;;;;8.47;7.33;;;;;;;;;;775289;178;919152;-69
2022/05/11 06:38:53;;;;;;;9.07;7.47;;;;;;;;;;775800;180;918372;-68
2022/05/11 06:41:19;;;;;;;12.90;7.20;;;;;;;;;;775523;177;920056;-67
2022/05/11 06:43:45;;;;;;;9.38;5.87;;;;;;;;;;775196;179;915541;-66
2022/05/11 06:46:11;;;;;;;7.60;6.83;;;;;;;;;;770154;177;915424;-68
2022/05/11 06:48:36;;;;;;;7.93;7.10;;;;;;;;;;768207;179;914437;-69
2022/05/11 06:51:02;;;;;;;12.40;7.53;;;;;;;;;;780839;179;917502;-69
2022/05/11 06:59:16;;;;;;;9.20;7.13;;;;;;;;;;775679;178;919721;-68
2022/05/11 07:00:58;;;;;;;10.67;7.90;;;;;;;;;;774188;178;912374;-68
2022/05/11 07:03:24;;;;;;;9.97;7.30;;;;;;;;;;775995;179;912437;-68
2022/05/11 07:05:50;;;;;;;10.27;6.83;;;;;;;;;;776250;180;917685;-68
2022/05/11 07:08:15;;;;;;;13.20;7.40;;;;;;;;;;781067;178;915790;-70
2022/05/11 07:10:42;;;;;;;15.83;7.10;;;;;;;;;;773085;179;919380;-70
2022/05/11 07:13:08;;;;;;;11.60;7.60;;;;;;;;;;776542;179;915599;-70
2022/05/11 07:15:34;;;;;;;8.93;6.70;;;;;;;;;;776810;180;923689;-70
2022/05/11 07:18:00;;;;;;;8.83;6.73;;;;;;;;;;779077;179;919137;-69
2022/05/11 07:20:26;;;;;;;8.00;6.23;;;;;;;;;;777700;179;918954;-72
2022/05/11 07:22:51;;;;;;;9.60;6.83;;;;;;;;;;772210;179;977145;-70
2022/05/11 07:25:17;;;;;;;8.60;6.37;;;;;;;;;;778749;179;916631;-70
2022/05/11 07:27:44;;;;;;;9.90;5.87;;;;;;;;;;768697;178;916428;-69
2022/05/11 07:30:09;;;;;;;9.70;6.47;;;;;;;;;;772197;180;919393;-71
2022/05/11 07:32:35;;;;;;;9.60;5.67;;;;;;;;;;780306;180;919703;-70
2022/05/11 07:35:01;;;;;;;11.60;6.63;;;;;;;;;;775100;179;918734;-72
2022/05/11 07:37:26;;;;;;;7.30;5.63;;;;;;;;;;775594;179;919855;-70
2022/05/11 07:39:52;;;;;;;8.10;6.53;;;;;;;;;;778276;179;918221;-69
2022/05/11 07:42:19;;;;;;;6.53;4.90;;;;;;;;;;772893;180;919274;-71
2022/05/11 07:44:44;;;;;;;7.87;6.50;;;;;;;;;;772685;178;923270;-72
2022/05/11 07:47:10;;;;;;;9.00;5.70;;;;;;;;;;772249;179;1000032;-71
2022/05/11 07:49:36;;;;;;;9.70;7.40;;;;;;;;;;780186;180;920358;-72
2022/05/11 07:52:02;;;;;;;9.43;6.07;;;;;;;;;;775611;179;919494;-72
2022/05/11 07:54:29;;;;;;;8.00;6.22;;;;;;;;;;773542;180;917818;-69
2022/05/11 08:01:57;;;;;;;10.53;6.47;;;;;;;;;;779652;178;919335;-71
2022/05/11 08:04:22;;;;;;;7.68;6.35;;;;;;;;;;778135;179;919309;-73
2022/05/11 08:06:48;;;;;;;6.47;5.10;;;;;;;;;;783170;180;919620;-72
2022/05/11 08:09:14;;;;;;;7.77;6.23;;;;;;;;;;776844;180;919285;-71
2022/05/11 08:11:40;;;;;;;9.70;5.90;;;;;;;;;;779109;176;918129;-70
2022/05/11 08:14:06;;;;;;;6.80;5.80;;;;;;;;;;785766;179;919127;-70
2022/05/11 08:16:32;;;;;;;7.97;5.93;;;;;;;;;;781283;179;918858;-72
2022/05/11 08:18:57;;;;;;;9.00;6.07;;;;;;;;;;779895;179;918989;-71
2022/05/11 08:21:25;;;;;;;12.63;6.10;;;;;;;;;;778178;179;918612;-72
2022/05/11 08:23:49;;;;;;;11.37;5.80;;;;;;;;;;769325;182;918912;-73
2022/05/11 08:26:16;;;;;;;7.20;6.00;;;;;;;;;;766053;180;919261;-69
2022/05/11 08:28:41;;;;;;;6.65;5.80;;;;;;;;;;772167;180;919504;-71
2022/05/11 08:33:39;;;;;;;10.57;6.27;;;;;;;;;;772107;180;1020982;-69
2022/05/11 08:36:05;;;;;;;12.10;6.47;;;;;;;;;;769088;177;919550;-74
2022/05/11 08:38:30;;;;;;;7.77;6.27;;;;;;;;;;779880;179;919291;-73
2022/05/11 08:40:56;;;;;;;10.90;5.60;;;;;;;;;;779633;179;918164;-71
2022/05/11 08:43:22;;;;;;;7.40;6.33;;;;;;;;;;778168;177;919172;-70
2022/05/11 08:45:48;;;;;;;7.53;5.93;;;;;;;;;;773921;179;920147;-72
2022/05/11 08:48:24;;;;;;;6.53;5.37;;;;;;;;;;783120;179;919058;-73
2022/05/11 08:50:50;;;;;;;9.00;6.50;;;;;;;;;;783859;180;918782;-69
2022/05/11 08:53:21;;;;;;;8.50;6.10;;;;;;;;;;777139;179;919468;-71
2022/05/11 08:55:47;;;;;;;9.47;5.90;;;;;;;;;;776538;179;919044;-72
2022/05/11 08:58:13;;;;;;;8.53;6.10;;;;;;;;;;782695;179;1021980;-71
2022/05/11 09:00:39;;;;;;;7.20;5.27;;;;;;;;;;777940;179;919861;-73
2022/05/11 09:03:05;;;;;;;12.30;6.17;;;;;;;;;;777985;179;919353;-72
2022/05/11 09:05:31;;;;;;;7.33;6.63;;;;;;;;;;782583;180;918896;-74
2022/05/11 09:07:57;;;;;;;7.33;6.17;;;;;;;;;;779054;179;918459;-70
2022/05/11 09:10:23;;;;;;;7.83;5.93;;;;;;;;;;776697;179;1012553;-70
2022/05/11 09:12:52;;;;;;;7.17;6.10;;;;;;;;;;779310;178;919285;-74
2022/05/11 09:15:18;;;;;;;6.90;5.63;;;;;;;;;;786400;179;919977;-71
2022/05/11 09:17:46;;;;;;;7.57;5.50;;;;;;;;;;773582;179;919052;-72
2022/05/11 09:20:11;;;;;;;8.20;5.93;;;;;;;;;;773591;180;919593;-72
2022/05/11 09:22:39;;;;;;;6.37;5.50;;;;;;;;;;781831;179;919213;-74
2022/05/11 09:25:11;;;;;;;8.30;5.40;;;;;;;;;;783281;179;919440;-70
2022/05/11 09:27:37;;;;;;;11.43;6.20;;;;;;;;;;780068;178;918655;-73
2022/05/11 09:30:03;;;;;;;7.50;5.70;;;;;;;;;;779184;177;919671;-76
2022/05/11 09:32:29;;;;;;;10.40;5.97;;;;;;;;;;782303;179;919395;-77
2022/05/11 09:34:57;;;;;;;10.73;5.23;;;;;;;;;;780203;179;918105;-70
2022/05/11 09:37:22;;;;;;;7.10;5.17;;;;;;;;;;775765;177;1020534;-73
2022/05/11 09:39:50;;;;;;;9.63;5.67;;;;;;;;;;774631;179;918732;-72
2022/05/11 09:42:16;;;;;;;5.43;4.80;;;;;;;;;;776584;180;816326;-74
2022/05/11 09:44:42;;;;;;;5.80;4.83;;;;;;;;;;774468;181;815829;-72
2022/05/11 09:47:14;;;;;;;6.17;4.93;;;;;;;;;;774633;180;816269;-72
2022/05/11 09:49:40;;;;;;;7.23;5.73;;;;;;;;;;781761;179;918971;-74
2022/05/11 09:52:08;;;;;;;13.07;5.70;;;;;;;;;;776237;178;919370;-73
2022/05/11 09:54:36;;;;;;;7.07;5.33;;;;;;;;;;774758;180;919085;-72
2022/05/11 09:57:01;;;;;;;10.03;5.40;;;;;;;;;;776637;180;919831;-74
2022/05/11 09:59:31;;;;;;;8.80;6.30;;;;;;;;;;782272;179;918395;-72
2022/05/11 10:02:07;;;;;;;6.23;5.63;;;;;;;;;;776403;180;919388;-72
2022/05/11 10:04:36;;;;;;;9.57;6.03;;;;;;;;;;772640;180;919490;-75
2022/05/11 10:07:02;;;;;;;7.07;6.37;;;;;;;;;;776040;180;904988;-71
2022/05/11 10:09:38;;;;;;;8.70;5.70;;;;;;;;;;782642;180;798437;-73
2022/05/11 10:12:05;;;;;;;9.80;5.90;;;;;;;;;;782248;179;918739;-73
2022/05/11 10:22:09;;;;;;;8.90;5.40;;;;;;;;;;783050;179;919464;-73
2022/05/11 10:24:41;;;;;;;8.03;5.93;;;;;;;;;;782590;176;918227;-74
2022/05/11 10:27:13;;;;;;;6.77;5.47;;;;;;;;;;778819;179;917132;-72
2022/05/11 10:29:39;;;;;;;6.17;5.47;;;;;;;;;;779112;179;917723;-73
2022/05/11 10:32:18;;;;;;;7.27;5.80;;;;;;;;;;780959;178;852598;-71
2022/05/11 10:34:47;;;;;;;7.90;4.97;;;;;;;;;;763000;181;1022654;-72
2022/05/11 10:37:23;;;;;;;11.07;6.40;;;;;;;;;;755867;186;813424;-75
2022/05/11 10:39:55;;;;;;;6.47;5.20;;;;;;;;;;750062;185;918681;-73
2022/05/11 10:42:26;;;;;;;6.70;5.10;;;;;;;;;;748476;186;919198;-75
2022/05/11 10:44:53;;;;;;;8.77;5.50;;;;;;;;;;749787;186;917050;-74
2022/05/11 10:47:25;;;;;;;8.17;5.37;;;;;;;;;;752402;182;848829;-74
2022/05/11 10:49:55;;;;;;;6.97;5.73;;;;;;;;;;779475;178;918822;-72
2022/05/11 10:52:21;;;;;;;13.10;5.83;;;;;;;;;;774402;179;922317;-73
2022/05/11 10:54:51;;;;;;;9.55;5.80;;;;;;;;;;774650;179;919171;-72
2022/05/11 10:57:19;;;;;;;6.67;5.77;;;;;;;;;;781092;180;918337;-76
2022/05/11 10:59:54;;;;;;;9.03;5.93;;;;;;;;;;775179;179;834368;-73
2022/05/11 11:02:35;;;;;;;7.53;5.00;;;;;;;;;;776725;179;813531;-76
2022/05/11 11:05:02;;;;;;;6.10;5.50;;;;;;;;;;774315;179;848397;-74
2022/05/11 11:07:29;;;;;;;10.20;5.53;;;;;;;;;;774873;179;919586;-76
2022/05/11 11:10:12;;;;;;;7.20;6.07;;;;;;;;;;782509;179;624613;-74
2022/05/11 11:12:39;;;;;;;8.38;6.10;;;;;;;;;;778925;180;916931;-75
2022/05/11 11:15:03;;;;;;;6.70;5.00;;;;;;;;;;774945;180;826975;-74
2022/05/11 11:17:29;;;;;;;9.33;5.80;;;;;;;;;;773700;180;919195;-74
2022/05/11 11:19:54;;;;;;;9.00;6.30;;;;;;;;;;776404;180;919185;-75
2022/05/11 11:22:20;;;;;;;6.03;5.37;;;;;;;;;;777787;180;918616;-73
2022/05/11 11:24:52;;;;;;;8.30;5.60;;;;;;;;;;773706;179;917416;-75
2022/05/11 11:27:18;;;;;;;8.77;5.03;;;;;;;;;;776111;178;912201;-76
2022/05/11 11:30:00;;;;;;;6.53;5.83;;;;;;;;;;781238;179;876324;-75
2022/05/11 11:32:25;;;;;;;8.60;4.90;;;;;;;;;;780501;178;616074;-74
2022/05/11 11:34:51;;;;;;;6.03;5.10;;;;;;;;;;774963;179;811840;-74
2022/05/11 11:37:23;;;;;;;7.53;4.60;;;;;;;;;;777144;177;991616;-73
2022/05/11 11:39:52;;;;;;;6.27;4.90;;;;;;;;;;776712;177;922248;-75
2022/05/11 11:42:24;;;;;;;6.30;4.40;;;;;;;;;;780427;179;813542;-72
2022/05/11 11:44:50;;;;;;;5.20;4.70;;;;;;;;;;779031;179;918097;-76
2022/05/11 11:47:22;;;;;;;6.07;4.97;;;;;;;;;;774456;179;917535;-72
2022/05/11 11:49:47;;;;;;;9.27;4.57;;;;;;;;;;776725;177;919991;-75
2022/05/11 11:52:14;;;;;;;6.53;4.37;;;;;;;;;;781400;179;914649;-76
2022/05/11 11:54:54;;;;;;;10.90;4.10;;;;;;;;;;771328;180;919326;-75
2022/05/11 11:57:30;;;;;;;7.97;4.50;;;;;;;;;;772238;179;921843;-73
2022/05/11 11:59:57;;;;;;;9.53;4.27;;;;;;;;;;774592;179;919735;-75
2022/05/11 12:02:23;;;;;;;5.03;3.40;;;;;;;;;;775397;180;919451;-73
2022/05/11 12:04:55;;;;;;;5.00;4.50;;;;;;;;;;781256;180;902224;-74
2022/05/11 12:15:02;;;;;;;9.57;4.73;;;;;;;;;;778147;179;836695;-74
2022/05/11 12:17:30;;;;;;;7.07;4.17;;;;;;;;;;781596;180;919785;-74
2022/05/11 12:19:56;;;;;;;11.10;4.97;;;;;;;;;;772030;179;917811;-74
2022/05/11 12:22:22;;;;;;;7.73;4.33;;;;;;;;;;775333;177;919724;-73
2022/05/11 12:24:49;;;;;;;5.80;4.40;;;;;;;;;;775467;178;918747;-74
2022/05/11 12:27:20;;;;;;;6.70;4.57;;;;;;;;;;779806;178;816417;-73
2022/05/11 12:29:56;;;;;;;4.90;4.30;;;;;;;;;;775068;178;818748;-74
2022/05/11 12:32:21;;;;;;;11.43;4.23;;;;;;;;;;777217;179;816362;-72
2022/05/11 12:34:47;;;;;;;8.37;4.80;;;;;;;;;;774955;179;838551;-74
2022/05/11 12:37:27;;;;;;;10.00;4.97;;;;;;;;;;781249;179;816893;-74
2022/05/11 12:39:54;;;;;;;5.00;4.50;;;;;;;;;;779308;179;833245;-73
2022/05/11 12:42:26;;;;;;;6.43;4.63;;;;;;;;;;775110;179;914847;-73
2022/05/11 12:44:52;;;;;;;7.77;3.80;;;;;;;;;;772892;179;816216;-75
2022/05/11 12:47:18;;;;;;;7.33;4.87;;;;;;;;;;776659;178;918618;-75
2022/05/11 12:49:44;;;;;;;6.97;4.93;;;;;;;;;;778408;179;713819;-76
2022/05/11 12:52:10;;;;;;;7.47;4.73;;;;;;;;;;776927;177;918478;-71
2022/05/11 12:54:35;;;;;;;6.07;4.60;;;;;;;;;;779880;179;646448;-76
2022/05/11 12:57:07;;;;;;;8.57;4.33;;;;;;;;;;784291;179;629640;-75
2022/05/11 12:59:32;;;;;;;5.50;4.27;;;;;;;;;;781365;179;637103;-78
2022/05/11 13:02:15;;;;;;;4.00;3.50;;;;;;;;;;777301;180;909681;-76
2022/05/11 13:04:47;;;;;;;9.00;4.20;;;;;;;;;;781176;177;671238;-74
2022/05/11 13:07:12;;;;;;;6.20;4.13;;;;;;;;;;779433;179;633120;-75
2022/05/11 13:09:38;;;;;;;4.97;4.23;;;;;;;;;;783078;176;619083;-75
2022/05/11 13:12:05;;;;;;;5.27;4.23;;;;;;;;;;779415;179;661780;-76
2022/05/11 13:14:31;;;;;;;4.80;4.20;;;;;;;;;;777735;177;714578;-75
2022/05/11 13:16:57;;;;;;;7.43;4.30;;;;;;;;;;782071;179;631614;-75
2022/05/11 13:19:24;;;;;;;6.33;4.63;;;;;;;;;;779757;179;632306;-77
2022/05/11 13:21:50;;;;;;;5.23;4.63;;;;;;;;;;779340;179;679597;-77
2022/05/11 13:24:16;;;;;;;6.83;5.27;;;;;;;;;;777872;179;675901;-76
2022/05/11 13:26:43;;;;;;;5.90;4.67;;;;;;;;;;775041;180;622948;-75
2022/05/11 13:29:11;;;;;;;6.53;4.90;;;;;;;;;;776768;178;635646;-76
2022/05/11 13:31:37;;;;;;;5.43;4.27;;;;;;;;;;778137;180;667147;-75
2022/05/11 13:34:03;;;;;;;5.57;4.90;;;;;;;;;;782402;178;626710;-75
2022/05/11 13:36:29;;;;;;;6.50;5.10;;;;;;;;;;777372;177;639722;-76
2022/05/11 13:39:04;;;;;;;4.70;4.13;;;;;;;;;;777882;177;640100;-75
2022/05/11 13:41:31;;;;;;;7.87;4.20;;;;;;;;;;775521;177;803814;-78
2022/05/11 13:43:57;;;;;;;5.73;4.03;;;;;;;;;;782855;180;632968;-76
2022/05/11 13:46:30;;;;;;;5.70;4.67;;;;;;;;;;778559;179;731535;-76
2022/05/11 13:48:54;;;;;;;5.70;4.37;;;;;;;;;;779798;178;639858;-77
2022/05/11 13:51:21;;;;;;;7.90;4.10;;;;;;;;;;774605;179;688381;-77
2022/05/11 13:53:47;;;;;;;4.67;3.67;;;;;;;;;;782952;179;721833;-75
2022/05/11 13:56:29;;;;;;;11.57;4.30;;;;;;;;;;778304;177;653376;-76
2022/05/11 13:59:10;;;;;;;6.30;4.53;;;;;;;;;;779501;178;692427;-73
2022/05/11 14:01:36;;;;;;;4.87;4.40;;;;;;;;;;781928;177;685001;-73
2022/05/11 14:04:01;;;;;;;4.47;3.63;;;;;;;;;;780538;177;622873;-76
2022/05/11 14:06:27;;;;;;;6.10;4.30;;;;;;;;;;782254;179;627642;-74
2022/05/11 14:08:53;;;;;;;7.50;4.50;;;;;;;;;;780942;179;617112;-72
2022/05/11 14:11:19;;;;;;;5.83;4.77;;;;;;;;;;778624;180;667624;-74
2022/05/11 14:13:45;;;;;;;4.83;4.33;;;;;;;;;;784179;179;620365;-72
2022/05/11 14:16:11;;;;;;;6.60;4.97;;;;;;;;;;781298;177;618905;-74
2022/05/11 14:18:37;;;;;;;8.67;4.20;;;;;;;;;;779906;180;625093;-74
2022/05/11 14:21:03;;;;;;;5.23;4.30;;;;;;;;;;779188;179;756721;-73
2022/05/11 14:23:29;;;;;;;5.23;3.80;;;;;;;;;;779940;180;643402;-75
2022/05/11 14:25:55;;;;;;;7.87;4.10;;;;;;;;;;773682;177;649837;-72
2022/05/11 14:28:21;;;;;;;4.90;4.30;;;;;;;;;;772978;178;693779;-74
2022/05/11 14:30:47;;;;;;;4.83;4.33;;;;;;;;;;781095;180;611662;-74
2022/05/11 14:33:13;;;;;;;6.43;4.23;;;;;;;;;;778217;179;647296;-74
2022/05/11 14:35:39;;;;;;;7.70;4.60;;;;;;;;;;782766;179;693085;-71
2022/05/11 14:38:05;;;;;;;5.03;4.50;;;;;;;;;;787826;179;628436;-74
2022/05/11 14:40:31;;;;;;;7.60;4.60;;;;;;;;;;777141;179;631296;-73
2022/05/11 14:42:57;;;;;;;6.93;4.70;;;;;;;;;;782635;179;627192;-74
2022/05/11 14:45:24;;;;;;;6.80;5.03;;;;;;;;;;781346;178;627780;-75
2022/05/11 14:47:50;;;;;;;11.53;4.40;;;;;;;;;;784915;179;637154;-75
2022/05/11 14:50:17;;;;;;;4.67;3.50;;;;;;;;;;779904;177;637327;-74
2022/05/11 14:52:41;;;;;;;5.40;4.03;;;;;;;;;;779636;179;636256;-75
2022/05/11 14:55:07;;;;;;;4.93;3.77;;;;;;;;;;782674;180;640717;-73